Terminal Aerodrome Forecast
Issued by NWS Northern Indiana

Home | Current Version | Previous Version | Graphics & Text | Print | Product List | Glossary On
Versions: 1 2 3 4 5 6 7 8 9 10 11 12 13 14 15
000
FTUS43 KIWX 281120
TAFFWA
TAF
KFWA 281120Z 2812/2912 VRB03KT P6SM VCSH OVC090
     FM281400 13004KT P6SM SHRA OVC060
     FM282100 07005KT 5SM SHRA BR OVC045
     FM290300 03007KT 3SM BR VCSH OVC015=

USA.gov is the U.S. government's official web portal to all federal, state and local government web resources and services.